sensor_id;sensor_type;location;lat;lon;timestamp;pressure;altitude;pressure_sealevel;temperature;humidity
47967;BME280;33733;52.456;13.620;2024-02-14T00:01:13;101650.00;;;5.29;66.39
47967;BME280;33733;52.456;13.620;2024-02-14T00:03:40;101663.41;;;5.18;67.05
47967;BME280;33733;52.456;13.620;2024-02-14T00:06:08;101651.41;;;5.39;66.75
47967;BME280;33733;52.456;13.620;2024-02-14T00:08:35;101651.91;;;4.97;66.79
47967;BME280;33733;52.456;13.620;2024-02-14T00:11:03;101658.34;;;5.13;67.21
47967;BME280;33733;52.456;13.620;2024-02-14T00:13:30;101660.00;;;5.16;66.99
47967;BME280;33733;52.456;13.620;2024-02-14T00:16:01;101650.09;;;5.26;66.85
47967;BME280;33733;52.456;13.620;2024-02-14T00:18:29;101655.41;;;5.22;66.83
47967;BME280;33733;52.456;13.620;2024-02-14T00:20:57;101654.97;;;5.10;67.31
47967;BME280;33733;52.456;13.620;2024-02-14T00:23:24;101656.03;;;5.04;67.67
47967;BME280;33733;52.456;13.620;2024-02-14T00:25:51;101660.16;;;4.84;68.22
47967;BME280;33733;52.456;13.620;2024-02-14T00:28:19;101648.81;;;4.85;67.72
47967;BME280;33733;52.456;13.620;2024-02-14T00:30:46;101657.44;;;5.14;67.54
47967;BME280;33733;52.456;13.620;2024-02-14T00:33:13;101652.59;;;4.74;68.31
47967;BME280;33733;52.456;13.620;2024-02-14T00:35:41;101652.47;;;4.79;68.41
47967;BME280;33733;52.456;13.620;2024-02-14T00:38:08;101648.81;;;4.85;68.47
47967;BME280;33733;52.456;13.620;2024-02-14T00:40:35;101654.28;;;5.05;67.71
47967;BME280;33733;52.456;13.620;2024-02-14T00:43:02;101649.03;;;5.31;67.36
47967;BME280;33733;52.456;13.620;2024-02-14T00:45:29;101652.25;;;5.39;66.53
47967;BME280;33733;52.456;13.620;2024-02-14T00:47:56;101656.53;;;5.66;66.76
47967;BME280;33733;52.456;13.620;2024-02-14T00:50:24;101656.94;;;5.81;65.71
47967;BME280;33733;52.456;13.620;2024-02-14T00:52:52;101648.84;;;5.88;65.37
47967;BME280;33733;52.456;13.620;2024-02-14T00:55:19;101653.94;;;5.93;64.38
47967;BME280;33733;52.456;13.620;2024-02-14T00:57:47;101654.81;;;5.92;64.62
47967;BME280;33733;52.456;13.620;2024-02-14T01:00:14;101656.97;;;5.79;65.53
47967;BME280;33733;52.456;13.620;2024-02-14T01:02:44;101658.41;;;5.63;65.49
47967;BME280;33733;52.456;13.620;2024-02-14T01:05:11;101656.53;;;5.66;66.33
47967;BME280;33733;52.456;13.620;2024-02-14T01:07:38;101657.44;;;5.65;66.02
47967;BME280;33733;52.456;13.620;2024-02-14T01:10:06;101657.97;;;5.77;65.78
47967;BME280;33733;52.456;13.620;2024-02-14T01:12:33;101659.63;;;5.78;65.77
47967;BME280;33733;52.456;13.620;2024-02-14T01:15:00;101658.72;;;5.54;66.36
47967;BME280;33733;52.456;13.620;2024-02-14T01:17:28;101669.97;;;5.05;68.01
47967;BME280;33733;52.456;13.620;2024-02-14T01:19:55;101663.34;;;4.65;68.81
47967;BME280;33733;52.456;13.620;2024-02-14T01:22:22;101662.53;;;4.63;69.85
47967;BME280;33733;52.456;13.620;2024-02-14T01:24:51;101665.78;;;4.70;69.29
47967;BME280;33733;52.456;13.620;2024-02-14T01:27:18;101656.16;;;5.00;68.79
47967;BME280;33733;52.456;13.620;2024-02-14T01:29:45;101645.63;;;5.29;67.66
47967;BME280;33733;52.456;13.620;2024-02-14T01:32:12;101654.69;;;5.45;66.53
47967;BME280;33733;52.456;13.620;2024-02-14T01:34:39;101649.19;;;5.53;66.48
47967;BME280;33733;52.456;13.620;2024-02-14T01:37:06;101648.22;;;5.55;65.74
47967;BME280;33733;52.456;13.620;2024-02-14T01:39:33;101648.47;;;4.95;67.73
47967;BME280;33733;52.456;13.620;2024-02-14T01:42:01;101653.03;;;4.89;68.44
47967;BME280;33733;52.456;13.620;2024-02-14T01:44:33;101643.97;;;4.72;68.99
47967;BME280;33733;52.456;13.620;2024-02-14T01:47:01;101643.75;;;4.51;69.24
47967;BME280;33733;52.456;13.620;2024-02-14T01:49:28;101636.16;;;4.43;69.52
47967;BME280;33733;52.456;13.620;2024-02-14T01:51:59;101633.63;;;4.69;69.48
47967;BME280;33733;52.456;13.620;2024-02-14T01:54:29;101638.72;;;5.00;68.29
47967;BME280;33733;52.456;13.620;2024-02-14T01:56:57;101627.66;;;5.18;67.86
47967;BME280;33733;52.456;13.620;2024-02-14T01:59:28;101628.34;;;5.25;67.38
47967;BME280;33733;52.456;13.620;2024-02-14T02:01:55;101626.34;;;5.32;67.30
47967;BME280;33733;52.456;13.620;2024-02-14T02:04:23;101621.13;;;5.32;67.20
47967;BME280;33733;52.456;13.620;2024-02-14T02:06:51;101623.59;;;5.36;66.49
47967;BME280;33733;52.456;13.620;2024-02-14T02:09:23;101626.25;;;5.35;66.84
47967;BME280;33733;52.456;13.620;2024-02-14T02:11:52;101621.75;;;5.38;66.77
47967;BME280;33733;52.456;13.620;2024-02-14T02:14:23;101621.69;;;5.41;66.69
47967;BME280;33733;52.456;13.620;2024-02-14T02:16:50;101624.38;;;5.38;66.68
47967;BME280;33733;52.456;13.620;2024-02-14T02:19:17;101616.38;;;5.43;66.37
47967;BME280;33733;52.456;13.620;2024-02-14T02:21:45;101610.13;;;5.47;66.01
47967;BME280;33733;52.456;13.620;2024-02-14T02:24:14;101610.03;;;5.25;66.45
47967;BME280;33733;52.456;13.620;2024-02-14T02:26:42;101606.06;;;5.38;67.06
47967;BME280;33733;52.456;13.620;2024-02-14T02:29:11;101610.53;;;5.36;66.56
47967;BME280;33733;52.456;13.620;2024-02-14T02:31:38;101608.31;;;5.24;66.87
47967;BME280;33733;52.456;13.620;2024-02-14T02:34:05;101607.88;;;4.85;68.17
47967;BME280;33733;52.456;13.620;2024-02-14T02:36:33;101610.88;;;4.99;67.86
47967;BME280;33733;52.456;13.620;2024-02-14T02:39:03;101604.13;;;5.18;67.01
47967;BME280;33733;52.456;13.620;2024-02-14T02:41:30;101601.22;;;5.28;67.00
47967;BME280;33733;52.456;13.620;2024-02-14T02:44:01;101599.56;;;5.25;67.29
47967;BME280;33733;52.456;13.620;2024-02-14T02:46:28;101593.06;;;5.10;67.38
47967;BME280;33733;52.456;13.620;2024-02-14T02:48:56;101593.59;;;4.95;67.41
47967;BME280;33733;52.456;13.620;2024-02-14T02:51:24;101603.06;;;4.98;67.29
47967;BME280;33733;52.456;13.620;2024-02-14T02:53:51;101599.06;;;4.88;68.12
47967;BME280;33733;52.456;13.620;2024-02-14T02:56:19;101604.03;;;4.95;68.10
47967;BME280;33733;52.456;13.620;2024-02-14T02:58:47;101594.63;;;5.16;67.51
47967;BME280;33733;52.456;13.620;2024-02-14T03:01:15;101589.00;;;5.28;67.43
47967;BME280;33733;52.456;13.620;2024-02-14T03:03:42;101588.78;;;5.34;66.38
47967;BME280;33733;52.456;13.620;2024-02-14T03:06:09;101599.34;;;5.31;67.11
47967;BME280;33733;52.456;13.620;2024-02-14T03:08:40;101595.84;;;5.06;66.98
47967;BME280;33733;52.456;13.620;2024-02-14T03:11:07;101582.34;;;5.18;67.29
47967;BME280;33733;52.456;13.620;2024-02-14T03:13:35;101585.56;;;5.26;67.01
47967;BME280;33733;52.456;13.620;2024-02-14T03:16:03;101586.41;;;5.27;67.25
47967;BME280;33733;52.456;13.620;2024-02-14T03:18:33;101578.47;;;5.30;66.96
47967;BME280;33733;52.456;13.620;2024-02-14T03:21:00;101576.78;;;5.29;66.66
47967;BME280;33733;52.456;13.620;2024-02-14T03:23:28;101575.97;;;5.27;67.39
47967;BME280;33733;52.456;13.620;2024-02-14T03:25:55;101583.03;;;5.25;67.25
47967;BME280;33733;52.456;13.620;2024-02-14T03:28:22;101577.84;;;5.23;67.64
47967;BME280;33733;52.456;13.620;2024-02-14T03:30:50;101567.84;;;5.09;67.70
47967;BME280;33733;52.456;13.620;2024-02-14T03:33:17;101580.22;;;5.04;67.94
47967;BME280;33733;52.456;13.620;2024-02-14T03:35:45;101576.38;;;5.14;67.95
47967;BME280;33733;52.456;13.620;2024-02-14T03:38:13;101581.69;;;5.13;67.94
47967;BME280;33733;52.456;13.620;2024-02-14T03:40:41;101577.22;;;5.15;67.72
47967;BME280;33733;52.456;13.620;2024-02-14T03:43:09;101573.50;;;5.22;67.75
47967;BME280;33733;52.456;13.620;2024-02-14T03:45:38;101564.88;;;4.94;67.78
47967;BME280;33733;52.456;13.620;2024-02-14T03:48:06;101568.31;;;4.96;68.36
47967;BME280;33733;52.456;13.620;2024-02-14T03:50:33;101561.91;;;5.04;68.06
47967;BME280;33733;52.456;13.620;2024-02-14T03:53:00;101565.13;;;5.12;68.37
47967;BME280;33733;52.456;13.620;2024-02-14T03:55:28;101562.53;;;4.58;69.15
47967;BME280;33733;52.456;13.620;2024-02-14T03:57:57;101562.13;;;4.44;69.92
47967;BME280;33733;52.456;13.620;2024-02-14T04:00:24;101564.13;;;4.64;70.10
47967;BME280;33733;52.456;13.620;2024-02-14T04:02:51;101565.47;;;4.76;68.98
47967;BME280;33733;52.456;13.620;2024-02-14T04:05:26;101561.47;;;4.65;69.80
47967;BME280;33733;52.456;13.620;2024-02-14T04:07:56;101558.75;;;4.68;70.28
47967;BME280;33733;52.456;13.620;2024-02-14T04:10:23;101546.84;;;4.60;70.21
47967;BME280;33733;52.456;13.620;2024-02-14T04:12:51;101541.34;;;4.67;69.89
47967;BME280;33733;52.456;13.620;2024-02-14T04:15:18;101541.19;;;4.73;69.99
47967;BME280;33733;52.456;13.620;2024-02-14T04:17:45;101542.84;;;4.48;70.69
47967;BME280;33733;52.456;13.620;2024-02-14T04:20:13;101541.97;;;4.76;69.99
47967;BME280;33733;52.456;13.620;2024-02-14T04:22:40;101546.94;;;4.57;70.13
47967;BME280;33733;52.456;13.620;2024-02-14T04:25:07;101557.63;;;4.49;70.51
47967;BME280;33733;52.456;13.620;2024-02-14T04:27:34;101562.25;;;4.12;71.21
47967;BME280;33733;52.456;13.620;2024-02-14T04:30:02;101570.03;;;3.84;72.21
47967;BME280;33733;52.456;13.620;2024-02-14T04:32:29;101562.63;;;3.98;72.60
47967;BME280;33733;52.456;13.620;2024-02-14T04:34:56;101562.44;;;4.06;72.47
47967;BME280;33733;52.456;13.620;2024-02-14T04:37:25;101561.84;;;3.96;72.62
47967;BME280;33733;52.456;13.620;2024-02-14T04:39:52;101560.22;;;3.92;72.53
47967;BME280;33733;52.456;13.620;2024-02-14T04:42:19;101550.75;;;3.90;73.21
47967;BME280;33733;52.456;13.620;2024-02-14T04:44:47;101548.31;;;4.13;72.80
47967;BME280;33733;52.456;13.620;2024-02-14T04:47:14;101551.94;;;4.07;72.07
47967;BME280;33733;52.456;13.620;2024-02-14T04:49:41;101545.16;;;4.02;72.37
47967;BME280;33733;52.456;13.620;2024-02-14T04:52:09;101553.56;;;4.11;72.55
47967;BME280;33733;52.456;13.620;2024-02-14T04:54:36;101544.22;;;4.32;72.22
47967;BME280;33733;52.456;13.620;2024-02-14T04:57:03;101543.13;;;4.11;72.00
47967;BME280;33733;52.456;13.620;2024-02-14T04:59:31;101543.63;;;4.22;72.25
47967;BME280;33733;52.456;13.620;2024-02-14T05:01:59;101543.97;;;4.12;72.44
47967;BME280;33733;52.456;13.620;2024-02-14T05:04:26;101532.50;;;4.17;72.32
47967;BME280;33733;52.456;13.620;2024-02-14T05:06:54;101534.28;;;4.15;72.14
47967;BME280;33733;52.456;13.620;2024-02-14T05:09:25;101524.84;;;4.11;72.15
47967;BME280;33733;52.456;13.620;2024-02-14T05:11:52;101522.16;;;3.85;72.92
47967;BME280;33733;52.456;13.620;2024-02-14T05:14:20;101523.66;;;3.94;73.26
47967;BME280;33733;52.456;13.620;2024-02-14T05:16:47;101528.16;;;4.18;73.14
47967;BME280;33733;52.456;13.620;2024-02-14T05:19:14;101527.03;;;4.53;72.25
47967;BME280;33733;52.456;13.620;2024-02-14T05:21:41;101522.66;;;4.80;72.13
47967;BME280;33733;52.456;13.620;2024-02-14T05:24:09;101521.09;;;5.00;71.03
47967;BME280;33733;52.456;13.620;2024-02-14T05:26:36;101522.88;;;4.73;70.85
47967;BME280;33733;52.456;13.620;2024-02-14T05:29:03;101511.25;;;4.82;71.20
47967;BME280;33733;52.456;13.620;2024-02-14T05:31:43;101507.88;;;5.05;70.50
47967;BME280;33733;52.456;13.620;2024-02-14T05:34:10;101502.16;;;5.18;69.96
47967;BME280;33733;52.456;13.620;2024-02-14T05:36:38;101498.81;;;4.64;70.64
47967;BME280;33733;52.456;13.620;2024-02-14T05:39:05;101505.75;;;4.65;70.94
47967;BME280;33733;52.456;13.620;2024-02-14T05:41:35;101495.22;;;4.93;70.45
47967;BME280;33733;52.456;13.620;2024-02-14T05:44:03;101492.00;;;4.58;71.37
47967;BME280;33733;52.456;13.620;2024-02-14T05:46:30;101491.53;;;4.73;70.95
47967;BME280;33733;52.456;13.620;2024-02-14T05:48:58;101481.94;;;4.99;70.40
47967;BME280;33733;52.456;13.620;2024-02-14T05:51:25;101482.06;;;4.96;70.23
47967;BME280;33733;52.456;13.620;2024-02-14T05:53:52;101485.56;;;4.95;70.33
47967;BME280;33733;52.456;13.620;2024-02-14T05:56:20;101485.19;;;4.81;70.06
47967;BME280;33733;52.456;13.620;2024-02-14T05:58:47;101483.38;;;5.07;69.86
47967;BME280;33733;52.456;13.620;2024-02-14T06:01:14;101475.97;;;5.20;69.90
47967;BME280;33733;52.456;13.620;2024-02-14T06:03:42;101479.31;;;5.24;70.01
47967;BME280;33733;52.456;13.620;2024-02-14T06:06:10;101476.00;;;4.94;70.40
47967;BME280;33733;52.456;13.620;2024-02-14T06:08:37;101481.97;;;4.72;70.10
47967;BME280;33733;52.456;13.620;2024-02-14T06:11:04;101482.56;;;4.54;70.98
47967;BME280;33733;52.456;13.620;2024-02-14T06:13:31;101484.97;;;4.34;71.96
47967;BME280;33733;52.456;13.620;2024-02-14T06:15:58;101479.31;;;4.48;71.57
47967;BME280;33733;52.456;13.620;2024-02-14T06:18:26;101478.94;;;4.58;71.77
47967;BME280;33733;52.456;13.620;2024-02-14T06:20:53;101480.72;;;4.58;71.89
47967;BME280;33733;52.456;13.620;2024-02-14T06:23:20;101476.81;;;4.45;71.35
47967;BME280;33733;52.456;13.620;2024-02-14T06:25:48;101484.28;;;4.55;72.65
47967;BME280;33733;52.456;13.620;2024-02-14T06:28:15;101476.19;;;4.89;71.49
47967;BME280;33733;52.456;13.620;2024-02-14T06:30:42;101471.22;;;4.82;70.89
47967;BME280;33733;52.456;13.620;2024-02-14T06:33:09;101484.56;;;4.99;70.77
47967;BME280;33733;52.456;13.620;2024-02-14T06:35:36;101477.47;;;4.78;71.18
47967;BME280;33733;52.456;13.620;2024-02-14T06:38:04;101484.47;;;4.76;71.04
47967;BME280;33733;52.456;13.620;2024-02-14T06:40:32;101485.72;;;4.65;71.14
47967;BME280;33733;52.456;13.620;2024-02-14T06:42:59;101481.72;;;4.80;70.98
47967;BME280;33733;52.456;13.620;2024-02-14T06:45:28;101481.91;;;5.00;71.02
47967;BME280;33733;52.456;13.620;2024-02-14T06:47:55;101482.41;;;5.10;70.53
47967;BME280;33733;52.456;13.620;2024-02-14T06:50:23;101480.34;;;5.19;70.33
47967;BME280;33733;52.456;13.620;2024-02-14T06:52:52;101478.69;;;5.17;69.48
47967;BME280;33733;52.456;13.620;2024-02-14T06:55:20;101471.91;;;5.11;70.50
47967;BME280;33733;52.456;13.620;2024-02-14T06:57:47;101466.47;;;5.17;69.73
47967;BME280;33733;52.456;13.620;2024-02-14T07:00:14;101475.00;;;5.22;70.22
47967;BME280;33733;52.456;13.620;2024-02-14T07:02:42;101472.97;;;5.06;70.66
47967;BME280;33733;52.456;13.620;2024-02-14T07:05:10;101470.97;;;4.89;70.26
47967;BME280;33733;52.456;13.620;2024-02-14T07:07:40;101468.66;;;5.05;70.14
47967;BME280;33733;52.456;13.620;2024-02-14T07:10:08;101461.84;;;5.01;70.26
47967;BME280;33733;52.456;13.620;2024-02-14T07:12:35;101455.63;;;4.79;70.97
47967;BME280;33733;52.456;13.620;2024-02-14T07:15:04;101454.44;;;4.89;70.64
47967;BME280;33733;52.456;13.620;2024-02-14T07:17:32;101451.31;;;5.02;69.77
47967;BME280;33733;52.456;13.620;2024-02-14T07:20:01;101456.94;;;4.92;70.60
47967;BME280;33733;52.456;13.620;2024-02-14T07:22:29;101463.53;;;5.02;70.30
47967;BME280;33733;52.456;13.620;2024-02-14T07:25:00;101458.88;;;5.10;69.59
47967;BME280;33733;52.456;13.620;2024-02-14T07:27:27;101452.47;;;4.94;70.07
47967;BME280;33733;52.456;13.620;2024-02-14T07:29:54;101452.81;;;4.85;69.94
47967;BME280;33733;52.456;13.620;2024-02-14T07:32:21;101444.63;;;4.94;70.14
47967;BME280;33733;52.456;13.620;2024-02-14T07:34:49;101436.56;;;5.01;69.93
47967;BME280;33733;52.456;13.620;2024-02-14T07:37:16;101428.31;;;5.12;69.52
47967;BME280;33733;52.456;13.620;2024-02-14T07:39:46;101440.84;;;5.27;69.69
47967;BME280;33733;52.456;13.620;2024-02-14T07:42:14;101431.28;;;5.26;69.08
47967;BME280;33733;52.456;13.620;2024-02-14T07:44:42;101433.28;;;5.43;68.98
47967;BME280;33733;52.456;13.620;2024-02-14T07:47:09;101441.38;;;5.37;68.18
47967;BME280;33733;52.456;13.620;2024-02-14T07:49:36;101449.53;;;5.28;69.20
47967;BME280;33733;52.456;13.620;2024-02-14T07:52:04;101452.78;;;5.34;68.70
47967;BME280;33733;52.456;13.620;2024-02-14T07:54:31;101454.16;;;5.44;69.00
47967;BME280;33733;52.456;13.620;2024-02-14T07:56:59;101456.63;;;5.49;68.66
47967;BME280;33733;52.456;13.620;2024-02-14T07:59:26;101455.75;;;5.72;68.53
47967;BME280;33733;52.456;13.620;2024-02-14T08:01:57;101464.09;;;5.58;68.36
47967;BME280;33733;52.456;13.620;2024-02-14T08:04:24;101462.91;;;5.66;68.05
47967;BME280;33733;52.456;13.620;2024-02-14T08:06:52;101459.91;;;5.77;67.72
47967;BME280;33733;52.456;13.620;2024-02-14T08:09:19;101452.59;;;5.85;67.33
47967;BME280;33733;52.456;13.620;2024-02-14T08:11:46;101450.16;;;5.81;68.19
47967;BME280;33733;52.456;13.620;2024-02-14T08:14:14;101459.63;;;5.85;67.98
47967;BME280;33733;52.456;13.620;2024-02-14T08:16:41;101451.19;;;5.77;67.47
47967;BME280;33733;52.456;13.620;2024-02-14T08:19:08;101449.19;;;5.83;67.31
47967;BME280;33733;52.456;13.620;2024-02-14T08:21:36;101449.97;;;5.85;67.53
47967;BME280;33733;52.456;13.620;2024-02-14T08:24:04;101446.53;;;5.85;68.40
47967;BME280;33733;52.456;13.620;2024-02-14T08:26:32;101444.94;;;5.81;68.21
47967;BME280;33733;52.456;13.620;2024-02-14T08:28:59;101438.44;;;5.91;68.13
47967;BME280;33733;52.456;13.620;2024-02-14T08:31:27;101442.25;;;5.82;68.07
47967;BME280;33733;52.456;13.620;2024-02-14T08:33:55;101440.91;;;5.95;68.08
47967;BME280;33733;52.456;13.620;2024-02-14T08:36:22;101444.75;;;6.08;66.66
47967;BME280;33733;52.456;13.620;2024-02-14T08:38:50;101439.31;;;5.91;67.27
47967;BME280;33733;52.456;13.620;2024-02-14T08:41:17;101441.63;;;5.99;67.51
47967;BME280;33733;52.456;13.620;2024-02-14T08:43:45;101437.94;;;6.04;67.66
47967;BME280;33733;52.456;13.620;2024-02-14T08:46:14;101432.25;;;6.15;68.26
47967;BME280;33733;52.456;13.620;2024-02-14T08:48:44;101426.97;;;6.17;67.44
47967;BME280;33733;52.456;13.620;2024-02-14T08:51:16;101427.16;;;6.12;67.72
47967;BME280;33733;52.456;13.620;2024-02-14T08:53:47;101428.00;;;6.12;68.15
47967;BME280;33733;52.456;13.620;2024-02-14T08:56:14;101441.19;;;6.09;68.80
47967;BME280;33733;52.456;13.620;2024-02-14T08:58:42;101438.03;;;6.01;68.97
47967;BME280;33733;52.456;13.620;2024-02-14T09:01:11;101437.50;;;6.15;69.12
47967;BME280;33733;52.456;13.620;2024-02-14T09:03:42;101445.88;;;6.01;70.22
47967;BME280;33733;52.456;13.620;2024-02-14T09:06:16;101432.75;;;6.25;70.12
47967;BME280;33733;52.456;13.620;2024-02-14T09:08:45;101427.75;;;6.19;69.57
47967;BME280;33733;52.456;13.620;2024-02-14T09:11:13;101434.69;;;5.98;70.19
47967;BME280;33733;52.456;13.620;2024-02-14T09:13:41;101435.97;;;6.09;70.15
47967;BME280;33733;52.456;13.620;2024-02-14T09:16:09;101432.66;;;6.26;70.10
47967;BME280;33733;52.456;13.620;2024-02-14T09:18:41;101429.38;;;6.43;69.87
47967;BME280;33733;52.456;13.620;2024-02-14T09:21:08;101430.56;;;6.56;70.16
47967;BME280;33733;52.456;13.620;2024-02-14T09:23:36;101425.53;;;6.51;69.29
47967;BME280;33733;52.456;13.620;2024-02-14T09:26:07;101427.66;;;6.42;70.14
47967;BME280;33733;52.456;13.620;2024-02-14T09:28:34;101433.09;;;6.57;69.69
47967;BME280;33733;52.456;13.620;2024-02-14T09:31:03;101433.38;;;6.51;70.32
47967;BME280;33733;52.456;13.620;2024-02-14T09:33:31;101437.50;;;6.37;70.67
47967;BME280;33733;52.456;13.620;2024-02-14T09:35:59;101423.63;;;6.55;70.78
47967;BME280;33733;52.456;13.620;2024-02-14T09:38:26;101429.56;;;6.38;70.72
47967;BME280;33733;52.456;13.620;2024-02-14T09:43:50;101437.59;;;6.34;72.56
47967;BME280;33733;52.456;13.620;2024-02-14T09:46:17;101429.09;;;6.49;71.47
47967;BME280;33733;52.456;13.620;2024-02-14T09:48:45;101431.22;;;6.41;72.91
47967;BME280;33733;52.456;13.620;2024-02-14T09:51:13;101430.38;;;6.60;72.21
47967;BME280;33733;52.456;13.620;2024-02-14T09:53:41;101421.91;;;6.54;72.26
47967;BME280;33733;52.456;13.620;2024-02-14T09:56:10;101435.16;;;6.51;73.50
47967;BME280;33733;52.456;13.620;2024-02-14T09:58:40;101433.00;;;6.60;72.83
47967;BME280;33733;52.456;13.620;2024-02-14T10:01:08;101433.41;;;6.72;72.83
47967;BME280;33733;52.456;13.620;2024-02-14T10:03:35;101439.56;;;6.71;72.91
47967;BME280;33733;52.456;13.620;2024-02-14T10:06:03;101429.47;;;6.82;73.33
47967;BME280;33733;52.456;13.620;2024-02-14T10:08:32;101430.50;;;6.78;74.14
47967;BME280;33733;52.456;13.620;2024-02-14T10:10:59;101426.06;;;6.80;74.30
47967;BME280;33733;52.456;13.620;2024-02-14T10:13:27;101430.91;;;6.69;75.26
47967;BME280;33733;52.456;13.620;2024-02-14T10:15:55;101429.44;;;6.61;76.67
47967;BME280;33733;52.456;13.620;2024-02-14T10:18:23;101424.47;;;6.55;77.04
47967;BME280;33733;52.456;13.620;2024-02-14T10:20:57;101431.03;;;6.66;77.30
47967;BME280;33733;52.456;13.620;2024-02-14T10:23:27;101433.44;;;6.70;78.10
47967;BME280;33733;52.456;13.620;2024-02-14T10:25:54;101424.63;;;6.73;78.55
47967;BME280;33733;52.456;13.620;2024-02-14T10:28:23;101424.94;;;6.85;78.45
47967;BME280;33733;52.456;13.620;2024-02-14T10:31:05;101424.16;;;6.63;78.34
47967;BME280;33733;52.456;13.620;2024-02-14T10:33:32;101419.09;;;6.58;78.74
47967;BME280;33733;52.456;13.620;2024-02-14T10:36:00;101415.28;;;6.66;79.35
47967;BME280;33733;52.456;13.620;2024-02-14T10:38:33;101421.38;;;6.66;79.21
47967;BME280;33733;52.456;13.620;2024-02-14T10:41:01;101412.75;;;6.64;80.28
47967;BME280;33733;52.456;13.620;2024-02-14T10:43:29;101418.97;;;6.82;80.20
47967;BME280;33733;52.456;13.620;2024-02-14T10:45:59;101422.72;;;6.76;80.20
47967;BME280;33733;52.456;13.620;2024-02-14T10:48:28;101418.25;;;6.78;80.42
47967;BME280;33733;52.456;13.620;2024-02-14T10:51:02;101417.16;;;6.84;81.06
47967;BME280;33733;52.456;13.620;2024-02-14T10:53:32;101410.38;;;6.98;80.26
47967;BME280;33733;52.456;13.620;2024-02-14T10:56:02;101408.81;;;6.94;80.35
47967;BME280;33733;52.456;13.620;2024-02-14T10:58:30;101407.75;;;6.98;81.59
47967;BME280;33733;52.456;13.620;2024-02-14T11:00:59;101412.75;;;7.04;81.06
47967;BME280;33733;52.456;13.620;2024-02-14T11:03:27;101401.47;;;7.21;80.40
47967;BME280;33733;52.456;13.620;2024-02-14T11:06:01;101389.41;;;7.17;80.36
47967;BME280;33733;52.456;13.620;2024-02-14T11:08:31;101395.69;;;6.94;80.79
47967;BME280;33733;52.456;13.620;2024-02-14T11:11:00;101396.16;;;7.04;81.06
47967;BME280;33733;52.456;13.620;2024-02-14T11:13:31;101391.34;;;7.14;80.97
47967;BME280;33733;52.456;13.620;2024-02-14T11:16:02;101387.97;;;7.30;80.95
47967;BME280;33733;52.456;13.620;2024-02-14T11:18:31;101390.94;;;7.23;79.91
47967;BME280;33733;52.456;13.620;2024-02-14T11:21:16;101388.97;;;7.46;80.06
47967;BME280;33733;52.456;13.620;2024-02-14T11:23:53;101390.09;;;7.78;80.42
47967;BME280;33733;52.456;13.620;2024-02-14T11:26:25;101389.78;;;7.84;79.55
47967;BME280;33733;52.456;13.620;2024-02-14T11:29:03;101389.06;;;7.99;79.33
47967;BME280;33733;52.456;13.620;2024-02-14T11:31:33;101382.16;;;7.97;78.38
47967;BME280;33733;52.456;13.620;2024-02-14T11:34:05;101388.59;;;7.91;78.54
47967;BME280;33733;52.456;13.620;2024-02-14T11:36:32;101388.22;;;7.99;78.50
47967;BME280;33733;52.456;13.620;2024-02-14T11:39:04;101390.03;;;7.97;77.71
47967;BME280;33733;52.456;13.620;2024-02-14T11:41:35;101389.06;;;7.99;77.70
47967;BME280;33733;52.456;13.620;2024-02-14T11:44:03;101385.84;;;8.12;78.40
47967;BME280;33733;52.456;13.620;2024-02-14T11:46:36;101383.94;;;7.96;77.71
47967;BME280;33733;52.456;13.620;2024-02-14T11:49:41;101384.84;;;7.78;78.41
47967;BME280;33733;52.456;13.620;2024-02-14T11:52:18;101390.41;;;7.89;78.61
47967;BME280;33733;52.456;13.620;2024-02-14T11:54:46;101383.63;;;7.67;79.54
47967;BME280;33733;52.456;13.620;2024-02-14T11:57:20;101384.56;;;7.66;79.64
47967;BME280;33733;52.456;13.620;2024-02-14T11:59:50;101387.78;;;7.89;80.32
47967;BME280;33733;52.456;13.620;2024-02-14T12:02:21;101386.75;;;7.75;79.72
47967;BME280;33733;52.456;13.620;2024-02-14T12:04:49;101380.16;;;7.66;80.35
47967;BME280;33733;52.456;13.620;2024-02-14T12:07:18;101386.19;;;7.68;79.77
47967;BME280;33733;52.456;13.620;2024-02-14T12:09:45;101386.44;;;7.81;80.06
47967;BME280;33733;52.456;13.620;2024-02-14T12:12:13;101386.22;;;7.85;79.32
47967;BME280;33733;52.456;13.620;2024-02-14T12:14:40;101383.25;;;7.93;79.85
47967;BME280;33733;52.456;13.620;2024-02-14T12:17:10;101391.09;;;7.76;79.56
47967;BME280;33733;52.456;13.620;2024-02-14T12:19:37;101383.28;;;7.74;80.57
47967;BME280;33733;52.456;13.620;2024-02-14T12:22:09;101384.25;;;7.90;80.26
47967;BME280;33733;52.456;13.620;2024-02-14T12:24:45;101385.22;;;8.07;79.93
47967;BME280;33733;52.456;13.620;2024-02-14T12:27:17;101384.13;;;8.11;79.59
47967;BME280;33733;52.456;13.620;2024-02-14T12:29:46;101383.28;;;8.10;79.56
47967;BME280;33733;52.456;13.620;2024-02-14T12:32:16;101384.09;;;7.93;80.55
47967;BME280;33733;52.456;13.620;2024-02-14T12:34:44;101380.13;;;7.85;80.88
47967;BME280;33733;52.456;13.620;2024-02-14T12:37:12;101378.94;;;7.92;81.27
47967;BME280;33733;52.456;13.620;2024-02-14T12:39:40;101375.34;;;7.93;81.36
47967;BME280;33733;52.456;13.620;2024-02-14T12:42:08;101376.75;;;7.83;81.25
47967;BME280;33733;52.456;13.620;2024-02-14T12:44:35;101377.28;;;7.89;81.48
47967;BME280;33733;52.456;13.620;2024-02-14T12:47:03;101377.84;;;7.96;81.96
47967;BME280;33733;52.456;13.620;2024-02-14T12:49:31;101380.75;;;7.90;82.14
47967;BME280;33733;52.456;13.620;2024-02-14T12:51:59;101378.78;;;7.95;81.39
47967;BME280;33733;52.456;13.620;2024-02-14T12:54:27;101374.22;;;7.98;81.67
47967;BME280;33733;52.456;13.620;2024-02-14T12:56:54;101383.34;;;8.09;82.09
47967;BME280;33733;52.456;13.620;2024-02-14T12:59:21;101370.47;;;8.21;81.63